Terminal Aerodrome Forecast
Issued by NWS Topeka, KS

Home | Current Version | Previous Version | Text Only | Print | Product List | Glossary On
Versions: 1 2 3 4 5 6 7 8 9 10 11 12 13 14 15 16 17 18 19 20 21 22 23 24
262
FTUS43 KTOP 211345 AAB
TAFTOP
TAF AMD
KTOP 211345Z 2114/2212 23004KT 2SM BR OVC015
      TEMPO 2114/2115 1/4SM FG OVC003
     FM211600 19005KT P6SM SCT150
     FM212300 08004KT P6SM BKN040
     FM220500 01006KT 4SM BR OVC020=

USA.gov is the U.S. government's official web portal to all federal, state and local government web resources and services.